Flying Club and Community

Welcome to Pacific Coast Flyers

Welcome to the online home of Pacific Coast Flyers. We are the #1 flying club in San Diego County, operating out of several airports in the San Diego area. It is our mission to provide a safe positive flying experience as well as excellent value for our members.

Pacific Coast Flyers - North County Flying Club

At Pacific Coast Flyers we provide much more than just aircraft rental. With safety events, club parties and barbecues, fly-in events and much more, you’ll see why we prefer to be called an aviation community instead of just your average “flying club”!

Pacific Coast Flyers - North County Flying Club

  • 24/7 Fleet Access
  • Well Equipped Fleet
  • Online Maint Records
  • Online Scheduling
  • Online Payments
  • Low Monthly Dues
  • No Block Deposits
  • Low Wet Rates
  • Diverse Fleet
  • Large Training Library

Local METARs

Palomar - KCRQ
2014/04/25 00:53 KCRQ 250053Z AUTO 22007KT 10SM CLR 19/12 A2992 RMK AO2 SLP128 T01890117 TSNO

Oceanside - KOKB
2014/04/25 00:52 KOKB 250052Z AUTO 19008KT 9SM CLR 19/12 A2991 RMK AO2 SLP129 T01890117

Ramona - KRNM
2014/04/25 00:53 KRNM 250053Z 27011KT 10SM CLR 21/07 A2992 RMK AO2 SLP126 T02060072

Montgomery - KMYF
2014/04/25 00:53 KMYF 250053Z 18008KT 10SM CLR 19/10 A2993 RMK AO2 SLP132 T01940100

Gillespie - KSEE
2014/04/25 01:15 KSEE 250115Z AUTO 21008KT 8SM CLR 20/08 A2994 RMK AO2

Brown - KSDM
2014/04/25 00:53 KSDM 250053Z 30007KT 10SM CLR 20/11 A2993 RMK AO2 SLP132 T02000111

PCF Weather Station

 

 none
Featured Aircraft

N734TE - 1977 Cessna C-172

Location: MC CLELLAN-PALOMAR
Equipment: GPS, WAAS, Auto Pilot, Marker Beacon, TCAS, Long Range Tanks, 4-place intercom
Information: Garmin GNS430W, Ga...

N8229Y - 1980 Piper PA-28R

Location: MC CLELLAN-PALOMAR
Equipment: ADF, DME, GPS, WAAS, Marker Beacon, Glass Cockpit, 4-place intercom
Information: WAAS GPS + Aspen P...

N751SP - 2000 Cessna C-172

Location: MC CLELLAN-PALOMAR
Equipment: ADF, DME, GPS, Auto Pilot, Marker Beacon, 4-place intercom
Information: Very clean aircraf...

N6051Q - 1965 Mooney M20

Location: MC CLELLAN-PALOMAR
Equipment: DME, GPS, WAAS, Marker Beacon, TCAS, Glass Cockpit, 4-place intercom
Information: Aspen PFD/MFD

See our Entire Fleet

Instructor Spotlight

85825
J. Paul Kling
...

Learn to fly with Pacific Coast Flyers

Contact Pacific Coast Flyers TODAY and get started flying with the #1 flying club in San Diego.
Call 877-PC-FLYER (877-723-5937) or click HERE.

Exclusive Promotion from AirPooler